Station: Cape Leeuwin  

  Atmospheric Gas Attenuation - ITU Rec 676-11   ----------------- dB/100km -----------------
Date Time Temp RH % AH g/m3 Dew Point Wind Direction Speed kph Gust kph Barometer mB Rainfall Since 9am 24GHz 47GHz 76GHz 122GHz 134GHz 241GHz
08/05 09:30 15.5 73 9.65 10.7 33 43 1031 0 21.7 27.8 44.0 115.4 111.7 385.0
08/05 09:20 15 73 9.36 10.2 37 43 1030.9 0 21.1 27.4 43.1 112.9 108.4 373.6
08/05 09:10 14.5 73 9.08 9.7 35 41 1030.9 0 20.6 27.1 42.2 110.6 105.4 362.8
08/05 09:00 14.5 73 9.08 9.7 39 52 1031 0 20.6 27.1 42.2 110.6 105.4 362.8
08/05 08:50 14.5 73 9.08 9.7 41 48 1030.9 0 20.6 27.1 42.2 110.6 105.4 362.8
08/05 08:40 14.1 75 9.1 9.7 41 48 1030.7 0 20.6 27.3 42.5 111.3 106.2 365.5
08/05 08:30 13.7 76 9 9.6 37 44 1030.9 0 20.4 27.3 42.3 110.8 105.4 362.7
08/05 08:20 13.4 78 9.07 9.6 35 41 1030.8 0 20.6 27.5 42.7 112.0 106.7 367.4
08/05 08:10 13 80 9.07 9.6 37 43 1030.7 0 20.6 27.6 42.9 112.6 107.3 369.2
08/05 08:00 12.6 80 8.85 9.2 35 44 1030.8 0 20.2 27.3 42.2 110.7 104.8 360.6
08/05 07:50 12.4 81 8.85 9.2 35 39 1030.6 0 20.2 27.4 42.3 111.0 105.1 361.4
08/05 07:40 12.3 82 8.9 9.3 35 43 1030.6 0 20.3 27.5 42.6 111.7 105.9 364.3
08/05 07:30 12.2 83 8.96 9.4 37 43 1030.6 0 20.4 27.6 42.9 112.5 106.9 367.7
08/05 07:20 12.3 83 9.01 9.5 33 39 1030.5 0 20.5 27.7 43.1 112.9 107.4 369.6
08/05 07:10 12.4 84 9.18 9.8 35 41 1030.5 0 20.9 27.9 43.7 114.6 109.6 377.4
08/05 07:00 12.3 85 9.23 9.9 33 39 1030.5 0 21.0 28.1 44.0 115.4 110.5 380.3
08/05 06:50 12.7 84 9.35 10.1 37 39 1030.4 0 21.2 28.1 44.3 116.1 111.5 384.1
08/05 06:40 13 85 9.64 10.5 33 37 1030.4 0 21.8 28.5 45.3 119.0 115.2 396.8
08/05 06:30 13.2 84 9.65 10.6 39 43 1030.5 0 21.8 28.5 45.3 118.8 115.0 396.3
08/05 06:20 13.1 83 9.47 10.3 39 43 1030.4 0 21.5 28.2 44.6 116.9 112.6 388.0
08/05 06:10 13.3 83 9.59 10.5 39 41 1030.4 0 21.7 28.4 44.9 117.9 114.0 392.9
08/05 06:00 13.4 83 9.65 10.6 35 43 1030.5 0 21.8 28.4 45.1 118.5 114.7 395.3
08/05 05:50 13.7 82 9.71 10.7 37 41 1030.4 0 21.9 28.4 45.2 118.7 115.1 396.7
08/05 05:40 13.8 82 9.77 10.8 39 43 1030.3 0 22.1 28.5 45.4 119.2 115.8 399.0
08/05 05:30 14 82 9.89 11 37 41 1030.5 0 22.3 28.6 45.8 120.3 117.2 403.9
08/05 05:20 14.3 81 9.95 11.1 35 37 1030.5 0 22.4 28.6 45.9 120.5 117.5 405.3
08/05 05:10 14.4 80 9.89 11 37 41 1030.5 0 22.3 28.5 45.6 119.7 116.5 401.9
08/05 05:00 14.5 80 9.95 11.1 37 43 1030.5 0 22.4 28.6 45.8 120.2 117.2 404.2
08/05 04:50 14.6 80 10.01 11.2 33 35 1030.4 0 22.5 28.6 46.0 120.7 117.9 406.6
08/05 04:40 14.7 79 9.95 11.1 35 39 1030.4 0 22.4 28.5 45.7 119.9 116.9 403.2
08/05 04:30 14.8 78 9.88 11 35 41 1030.4 0 22.2 28.4 45.3 118.9 115.8 399.3
08/05 04:20 14.9 77 9.81 10.9 37 41 1030.3 0 22.1 28.2 45.0 118.0 114.7 395.4
08/05 04:10 15 76 9.75 10.8 37 41 1030.3 0 22.0 28.1 44.6 117.2 113.7 392.0
08/05 04:00 15.3 77 10.06 11.3 35 43 1030.4 0 22.6 28.5 45.8 120.2 117.5 405.4
08/05 03:50 15.3 76 9.92 11.1 33 41 1030.4 0 22.3 28.3 45.2 118.6 115.6 398.7
08/05 03:40 15.5 75 9.91 11.1 35 39 1030.4 0 22.3 28.2 45.0 118.2 115.2 397.2
08/05 03:30 15.4 74 9.72 10.8 35 44 1030.5 0 21.9 27.9 44.3 116.3 112.7 388.6
08/05 03:20 15.4 74 9.72 10.8 35 41 1030.4 0 21.9 27.9 44.3 116.2 112.7 388.6
08/05 03:10 15.6 74 9.84 11 32 37 1030.5 0 22.1 28.0 44.7 117.3 114.1 393.3
08/05 03:00 15.7 72 9.63 10.7 37 43 1030.6 0 21.7 27.7 43.8 114.8 111.1 382.9
08/05 02:50 15.8 71 9.56 10.6 35 41 1030.4 0 21.5 27.5 43.4 113.9 110.0 379.1
08/05 02:40 15.8 70 9.42 10.3 35 41 1030.4 0 21.2 27.3 42.9 112.4 108.1 372.5
08/05 02:30 16 71 9.67 10.7 35 43 1030.5 0 21.7 27.6 43.8 114.8 111.2 383.3
08/05 02:20 16 71 9.67 10.7 37 41 1030.3 0 21.7 27.6 43.8 114.8 111.2 383.3
08/05 02:10 16 69 9.4 10.3 39 43 1030.3 0 21.2 27.2 42.7 111.9 107.5 370.6
08/05 02:00 16.2 71 9.79 10.9 37 44 1030.4 0 22.0 27.8 44.1 115.8 112.5 388.0
08/05 01:50 16.2 69 9.51 10.5 35 37 1030.5 0 21.4 27.3 43.0 112.8 108.7 374.8
08/05 01:40 16.2 67 9.24 10.1 35 39 1030.6 0 20.8 26.9 41.9 109.9 105.2 362.3
08/05 01:30 16.3 67 9.29 10.2 32 39 1030.8 0 20.9 26.9 42.1 110.3 105.7 364.2
08/05 01:20 16.4 69 9.63 10.7 28 33 1030.8 0 21.6 27.5 43.4 113.8 110.1 379.6
08/05 01:10 16.4 68 9.49 10.5 32 33 1030.8 0 21.3 27.2 42.8 112.3 108.2 373.0
08/05 01:00 16.3 67 9.29 10.2 33 39 1030.9 0 20.9 26.9 42.1 110.3 105.7 364.3
08/05 00:50 16.3 67 9.29 10.2 33 35 1030.9 0 20.9 26.9 42.1 110.3 105.7 364.3
08/05 00:40 16.4 64 8.93 9.6 35 39 1030.9 0 20.1 26.3 40.6 106.3 100.9 347.2
08/05 00:30 16.4 65 9.07 9.8 32 37 1031 0 20.4 26.6 41.2 107.8 102.7 353.7
08/05 00:20 16.5 65 9.13 9.9 35 37 1030.9 0 20.6 26.6 41.3 108.3 103.3 356.0
08/05 00:10 16.6 67 9.46 10.5 32 35 1030.9 0 21.3 27.1 42.6 111.7 107.6 370.7
08/05 00:00 16.7 64 9.09 9.9 33 43 1031 0 20.5 26.5 41.1 107.6 102.6 353.3
07/05 23:50 16.9 70 10.07 11.4 33 39 1030.9 0 22.5 28.0 44.9 117.9 115.3 397.8
07/05 23:40 16.9 69 9.92 11.2 35 43 1030.9 0 22.2 27.8 44.3 116.3 113.3 390.8
07/05 23:30 17 71 10.27 11.7 35 44 1031 0 23.0 28.3 45.7 120.0 117.9 406.8
07/05 23:20 17.1 73 10.63 12.2 35 39 1030.8 0 23.7 28.9 47.1 123.8 122.6 423.3
07/05 23:10 17.2 73 10.69 12.3 37 44 1030.9 0 23.8 29.0 47.3 124.3 123.3 425.7
07/05 23:00 17.3 76 11.2 13 39 46 1030.9 0 24.9 29.8 49.4 129.9 130.1 449.8
07/05 22:50 17.2 76 11.13 12.9 39 43 1030.7 0 24.8 29.7 49.2 129.2 129.3 446.9
07/05 22:40 17.1 72 10.48 12 44 50 1030.7 0 23.4 28.6 46.5 122.1 120.5 416.1
07/05 22:30 17.3 76 11.2 13 43 50 1030.7 0 24.9 29.8 49.4 129.8 130.1 449.7
07/05 22:20 17.3 76 11.2 13 43 48 1030.5 0 24.9 29.8 49.4 129.8 130.1 449.6
07/05 22:10 17.4 76 11.26 13.1 44 50 1030.5 0 25.0 29.9 49.6 130.3 130.8 452.0
07/05 22:00 17.4 76 11.26 13.1 46 54 1030.5 0 25.0 29.9 49.6 130.3 130.8 452.0
07/05 21:50 17.5 77 11.48 13.4 48 54 1030.4 0 25.5 30.2 50.4 132.6 133.7 462.1
07/05 21:40 17.7 80 12.07 14.2 43 50 1030.4 0 26.7 31.1 52.8 139.1 141.6 489.9
07/05 21:30 17.7 78 11.77 13.8 46 57 1030.4 0 26.1 30.6 51.5 135.6 137.4 475.1
07/05 21:20 17.8 79 11.99 14.1 43 46 1030.3 0 26.6 31.0 52.4 137.9 140.3 485.3
07/05 21:10 17.8 80 12.14 14.3 44 50 1030.3 0 26.9 31.2 53.1 139.7 142.4 492.7
07/05 21:00 17.7 80 12.07 14.2 46 54 1030.3 0 26.7 31.1 52.8 139.0 141.6 489.9
07/05 20:50 17.9 79 12.06 14.2 50 54 1030.2 0 26.7 31.0 52.7 138.6 141.1 488.1
07/05 20:40 18 79 12.13 14.3 48 54 1030.2 0 26.8 31.1 52.9 139.2 141.9 490.9
07/05 20:30 18.3 80 12.51 14.8 46 52 1030.2 0 27.6 31.7 54.3 143.0 146.7 507.9
07/05 20:20 18.2 79 12.28 14.5 46 50 1030.1 0 27.2 31.3 53.4 140.5 143.6 497.1
07/05 20:10 18.2 78 12.12 14.3 48 54 1030 0 26.8 31.0 52.7 138.7 141.4 489.1
07/05 20:00 18.4 78 12.27 14.5 44 52 1030.1 0 27.1 31.2 53.2 140.1 143.1 495.3
07/05 19:50 18.4 76 11.95 14.1 44 48 1030 0 26.4 30.7 51.8 136.4 138.6 479.5
07/05 19:40 18.6 77 12.25 14.5 41 46 1030 0 27.1 31.1 53.0 139.5 142.5 493.0
07/05 19:30 18.6 76 12.09 14.3 39 46 1030.1 0 26.7 30.8 52.3 137.6 140.2 485.2
07/05 19:20 18.6 75 11.94 14.1 39 44 1029.9 0 26.4 30.6 51.7 135.9 138.1 477.7
07/05 19:10 18.6 74 11.78 13.9 43 46 1029.8 0 26.1 30.3 51.0 134.1 135.8 469.9
07/05 19:00 18.6 75 11.94 14.1 39 44 1030 0 26.4 30.6 51.7 135.9 138.1 477.8
07/05 18:50 18.6 74 11.78 13.9 41 44 1029.9 0 26.1 30.3 51.0 134.1 135.9 469.9
07/05 18:40 18.6 74 11.78 13.9 37 43 1029.8 0 26.1 30.3 51.0 134.1 135.8 469.9
07/05 18:30 18.6 75 11.94 14.1 37 48 1029.9 0 26.4 30.6 51.7 135.9 138.1 477.7
07/05 18:20 18.6 76 12.09 14.3 39 44 1029.8 0 26.7 30.8 52.3 137.6 140.2 485.0
07/05 18:10 18.6 76 12.09 14.3 33 39 1029.8 0 26.7 30.8 52.3 137.6 140.2 485.0
07/05 18:00 18.4 73 11.48 13.5 37 46 1029.9 0 25.4 29.9 49.8 131.1 132.0 456.6
07/05 17:50 18.5 74 11.71 13.8 35 43 1029.8 0 25.9 30.2 50.7 133.5 135.1 467.1
07/05 17:40 18.3 69 10.79 12.5 41 44 1029.7 0 24.0 28.7 47.0 123.5 122.8 424.1
07/05 17:30 18.3 72 11.26 13.2 37 46 1029.8 0 25.0 29.5 49.0 128.7 129.2 446.5
07/05 17:20 18.5 74 11.71 13.8 35 41 1029.8 0 25.9 30.2 50.7 133.5 135.1 467.1
07/05 17:10 18.5 74 11.71 13.8 35 39 1029.8 0 25.9 30.2 50.7 133.5 135.1 467.1
07/05 17:00 18.4 71 11.17 13.1 35 43 1029.9 0 24.8 29.3 48.5 127.6 127.8 441.7

Last Refresh: 08-May-2026 11:05:14

Bureau of Meteorology